sensor_id;sensor_type;location;lat;lon;timestamp;pressure;altitude;pressure_sealevel;temperature;humidity
61710;BME280;73500;51.494;5.386;2024-03-23T00:53:11;100984.69;;;18.56;46.67
61710;BME280;73500;51.494;5.386;2024-03-23T00:55:36;101020.88;;;18.77;46.75
61710;BME280;73500;51.494;5.386;2024-03-23T00:58:02;101007.44;;;18.68;46.67
61710;BME280;73500;51.494;5.386;2024-03-23T01:00:27;100994.75;;;18.62;46.57
61710;BME280;73500;51.494;5.386;2024-03-23T01:02:52;100997.63;;;18.59;46.78
61710;BME280;73500;51.494;5.386;2024-03-23T01:05:19;101008.16;;;18.71;46.79
61710;BME280;73500;51.494;5.386;2024-03-23T01:07:44;100993.91;;;18.62;46.69
61710;BME280;73500;51.494;5.386;2024-03-23T01:10:10;100993.09;;;18.61;46.64
61710;BME280;73500;51.494;5.386;2024-03-23T01:12:35;101001.59;;;18.65;46.68
61710;BME280;73500;51.494;5.386;2024-03-23T01:15:00;100983.59;;;18.59;46.77
61710;BME280;73500;51.494;5.386;2024-03-23T01:17:25;101000.50;;;18.67;46.33
61710;BME280;73500;51.494;5.386;2024-03-23T01:19:51;100979.41;;;18.56;46.40
61710;BME280;73500;51.494;5.386;2024-03-23T01:22:16;100987.69;;;18.63;46.34
61710;BME280;73500;51.494;5.386;2024-03-23T01:24:41;100994.63;;;18.64;46.08
61710;BME280;73500;51.494;5.386;2024-03-23T01:27:06;100997.50;;;18.61;46.55
61710;BME280;73500;51.494;5.386;2024-03-23T01:29:32;100989.47;;;18.62;46.30
61710;BME280;73500;51.494;5.386;2024-03-23T01:31:57;100984.94;;;18.53;46.23
61710;BME280;73500;51.494;5.386;2024-03-23T01:34:22;100973.66;;;18.51;46.31
61710;BME280;73500;51.494;5.386;2024-03-23T01:36:50;100974.97;;;18.57;46.32
61710;BME280;73500;51.494;5.386;2024-03-23T01:39:15;100990.56;;;18.60;46.01
61710;BME280;73500;51.494;5.386;2024-03-23T01:41:40;100980.25;;;18.57;46.29
61710;BME280;73500;51.494;5.386;2024-03-23T01:44:07;100973.91;;;18.48;46.29
61710;BME280;73500;51.494;5.386;2024-03-23T01:46:34;100962.41;;;18.49;46.08
61710;BME280;73500;51.494;5.386;2024-03-23T01:48:59;100987.31;;;18.56;46.16
61710;BME280;73500;51.494;5.386;2024-03-23T01:51:25;100979.06;;;18.49;46.15
61710;BME280;73500;51.494;5.386;2024-03-23T01:53:52;100968.88;;;18.45;46.00
61710;BME280;73500;51.494;5.386;2024-03-23T01:56:18;100972.97;;;18.49;45.89
61710;BME280;73500;51.494;5.386;2024-03-23T01:58:43;100978.56;;;18.56;45.88
61710;BME280;73500;51.494;5.386;2024-03-23T02:01:08;100951.25;;;18.45;45.95
61710;BME280;73500;51.494;5.386;2024-03-23T02:03:33;100950.06;;;18.38;46.07
61710;BME280;73500;51.494;5.386;2024-03-23T02:05:59;100963.59;;;18.45;46.16
61710;BME280;73500;51.494;5.386;2024-03-23T02:08:24;100976.31;;;18.51;45.80
61710;BME280;73500;51.494;5.386;2024-03-23T02:10:50;100986.50;;;18.56;45.88
61710;BME280;73500;51.494;5.386;2024-03-23T02:13:17;100972.72;;;18.52;45.79
61710;BME280;73500;51.494;5.386;2024-03-23T02:15:42;100973.66;;;18.51;45.72
61710;BME280;73500;51.494;5.386;2024-03-23T02:18:08;100959.88;;;18.47;45.76
61710;BME280;73500;51.494;5.386;2024-03-23T02:20:34;100935.81;;;18.41;45.69
61710;BME280;73500;51.494;5.386;2024-03-23T02:23:00;100935.81;;;18.41;45.85
61710;BME280;73500;51.494;5.386;2024-03-23T02:25:25;100935.06;;;18.39;45.91
61710;BME280;73500;51.494;5.386;2024-03-23T02:27:50;100938.66;;;18.49;45.66
61710;BME280;73500;51.494;5.386;2024-03-23T02:30:16;100948.09;;;18.52;45.31
61710;BME280;73500;51.494;5.386;2024-03-23T02:32:41;100940.47;;;18.48;45.86
61710;BME280;73500;51.494;5.386;2024-03-23T02:35:06;100932.66;;;18.47;45.39
61710;BME280;73500;51.494;5.386;2024-03-23T02:37:31;100916.72;;;18.37;45.69
61710;BME280;73500;51.494;5.386;2024-03-23T02:39:58;100919.47;;;18.36;45.61
61710;BME280;73500;51.494;5.386;2024-03-23T02:42:23;100936.38;;;18.44;45.57
61710;BME280;73500;51.494;5.386;2024-03-23T02:44:49;100934.69;;;18.43;45.61
61710;BME280;73500;51.494;5.386;2024-03-23T02:47:14;100915.44;;;18.31;45.50
61710;BME280;73500;51.494;5.386;2024-03-23T02:49:39;100916.25;;;18.32;45.72
61710;BME280;73500;51.494;5.386;2024-03-23T02:52:04;100932.06;;;18.43;45.55
61710;BME280;73500;51.494;5.386;2024-03-23T02:54:30;100928.00;;;18.39;45.46
61710;BME280;73500;51.494;5.386;2024-03-23T02:56:55;100938.31;;;18.42;45.36
61710;BME280;73500;51.494;5.386;2024-03-23T02:59:20;100932.44;;;18.39;45.33
61710;BME280;73500;51.494;5.386;2024-03-23T03:01:46;100942.63;;;18.43;45.51
61710;BME280;73500;51.494;5.386;2024-03-23T03:04:11;100914.22;;;18.24;45.37
61710;BME280;73500;51.494;5.386;2024-03-23T03:06:36;100936.75;;;18.40;45.29
61710;BME280;73500;51.494;5.386;2024-03-23T03:09:02;100936.16;;;18.36;45.42
61710;BME280;73500;51.494;5.386;2024-03-23T03:11:27;100939.63;;;18.37;45.06
61710;BME280;73500;51.494;5.386;2024-03-23T03:13:52;100932.34;;;18.29;45.24
61710;BME280;73500;51.494;5.386;2024-03-23T03:16:18;100946.59;;;18.38;45.20
61710;BME280;73500;51.494;5.386;2024-03-23T03:18:43;100949.25;;;18.38;45.18
61710;BME280;73500;51.494;5.386;2024-03-23T03:21:11;100930.06;;;18.24;45.12
61710;BME280;73500;51.494;5.386;2024-03-23T03:23:37;100947.69;;;18.35;45.13
61710;BME280;73500;51.494;5.386;2024-03-23T03:26:03;100939.53;;;18.27;45.03
61710;BME280;73500;51.494;5.386;2024-03-23T03:28:28;100942.28;;;18.37;44.92
61710;BME280;73500;51.494;5.386;2024-03-23T03:30:56;100930.81;;;18.26;45.02
61710;BME280;73500;51.494;5.386;2024-03-23T03:33:22;100942.63;;;18.32;44.85
61710;BME280;73500;51.494;5.386;2024-03-23T03:35:47;100931.38;;;18.30;45.20
61710;BME280;73500;51.494;5.386;2024-03-23T03:38:12;100917.84;;;18.23;44.80
61710;BME280;73500;51.494;5.386;2024-03-23T03:40:38;100920.50;;;18.23;44.98
61710;BME280;73500;51.494;5.386;2024-03-23T03:43:03;100918.09;;;18.20;44.51
61710;BME280;73500;51.494;5.386;2024-03-23T03:45:29;100908.50;;;18.19;44.74
61710;BME280;73500;51.494;5.386;2024-03-23T03:47:54;100932.94;;;18.33;44.78
61710;BME280;73500;51.494;5.386;2024-03-23T03:50:21;100916.28;;;18.21;44.44
61710;BME280;73500;51.494;5.386;2024-03-23T03:52:46;100928.16;;;18.26;44.61
61710;BME280;73500;51.494;5.386;2024-03-23T03:55:14;100908.38;;;18.21;44.46
61710;BME280;73500;51.494;5.386;2024-03-23T03:57:39;100910.91;;;18.22;44.67
61710;BME280;73500;51.494;5.386;2024-03-23T04:00:05;100905.16;;;18.17;44.70
61710;BME280;73500;51.494;5.386;2024-03-23T04:02:31;100903.47;;;18.16;44.43
61710;BME280;73500;51.494;5.386;2024-03-23T04:04:56;100908.38;;;18.21;44.10
61710;BME280;73500;51.494;5.386;2024-03-23T04:07:22;100925.66;;;18.25;44.35
61710;BME280;73500;51.494;5.386;2024-03-23T04:09:48;100929.81;;;18.27;44.32
61710;BME280;73500;51.494;5.386;2024-03-23T04:12:14;100931.63;;;18.27;44.14
61710;BME280;73500;51.494;5.386;2024-03-23T04:14:40;100915.72;;;18.17;44.19
61710;BME280;73500;51.494;5.386;2024-03-23T04:17:05;100908.88;;;18.15;44.09
61710;BME280;73500;51.494;5.386;2024-03-23T04:19:30;100913.31;;;18.14;44.37
61710;BME280;73500;51.494;5.386;2024-03-23T04:21:56;100912.47;;;18.13;44.27
61710;BME280;73500;51.494;5.386;2024-03-23T04:24:21;100926.84;;;18.21;44.41
61710;BME280;73500;51.494;5.386;2024-03-23T04:26:47;100922.41;;;18.21;44.33
61710;BME280;73500;51.494;5.386;2024-03-23T04:29:12;100913.19;;;18.16;44.18
61710;BME280;73500;51.494;5.386;2024-03-23T04:31:38;100908.41;;;18.09;44.26
61710;BME280;73500;51.494;5.386;2024-03-23T04:34:03;100918.94;;;18.21;44.36
61710;BME280;73500;51.494;5.386;2024-03-23T04:36:29;100920.00;;;18.18;43.91
61710;BME280;73500;51.494;5.386;2024-03-23T04:38:56;100918.34;;;18.17;44.07
61710;BME280;73500;51.494;5.386;2024-03-23T04:41:22;100920.16;;;18.17;44.06
61710;BME280;73500;51.494;5.386;2024-03-23T04:43:47;100909.00;;;18.13;44.04
61710;BME280;73500;51.494;5.386;2024-03-23T04:46:12;100911.88;;;18.10;44.10
61710;BME280;73500;51.494;5.386;2024-03-23T04:48:38;100912.84;;;18.09;43.89
61710;BME280;73500;51.494;5.386;2024-03-23T04:51:03;100911.03;;;18.09;44.11
61710;BME280;73500;51.494;5.386;2024-03-23T04:53:29;100921.94;;;18.16;44.00
61710;BME280;73500;51.494;5.386;2024-03-23T04:55:57;100928.78;;;18.19;43.93
61710;BME280;73500;51.494;5.386;2024-03-23T04:58:24;100931.66;;;18.16;43.89
61710;BME280;73500;51.494;5.386;2024-03-23T05:00:56;100932.47;;;18.16;43.87
61710;BME280;73500;51.494;5.386;2024-03-23T05:03:22;100917.63;;;18.15;43.88
61710;BME280;73500;51.494;5.386;2024-03-23T05:05:49;100901.69;;;18.05;43.86
61710;BME280;73500;51.494;5.386;2024-03-23T05:08:15;100919.53;;;18.13;43.98
61710;BME280;73500;51.494;5.386;2024-03-23T05:10:42;100901.81;;;18.04;43.71
61710;BME280;73500;51.494;5.386;2024-03-23T05:13:07;100911.03;;;18.09;43.93
61710;BME280;73500;51.494;5.386;2024-03-23T05:15:32;100908.53;;;18.08;43.88
61710;BME280;73500;51.494;5.386;2024-03-23T05:17:58;100917.03;;;18.11;43.62
61710;BME280;73500;51.494;5.386;2024-03-23T05:20:23;100902.66;;;18.04;43.66
61710;BME280;73500;51.494;5.386;2024-03-23T05:22:49;100920.38;;;18.02;43.51
61710;BME280;73500;51.494;5.386;2024-03-23T05:25:15;100910.81;;;18.01;43.59
61710;BME280;73500;51.494;5.386;2024-03-23T05:27:41;100920.63;;;18.10;43.52
61710;BME280;73500;51.494;5.386;2024-03-23T05:30:07;100922.53;;;18.08;43.82
61710;BME280;73500;51.494;5.386;2024-03-23T05:32:32;100904.97;;;17.98;43.53
61710;BME280;73500;51.494;5.386;2024-03-23T05:34:57;100913.22;;;18.04;43.58
61710;BME280;73500;51.494;5.386;2024-03-23T05:37:23;100917.25;;;18.08;43.62
61710;BME280;73500;51.494;5.386;2024-03-23T05:39:49;100913.91;;;18.06;43.50
61710;BME280;73500;51.494;5.386;2024-03-23T05:42:16;100896.94;;;17.99;43.46
61710;BME280;73500;51.494;5.386;2024-03-23T05:44:43;100914.88;;;18.05;43.26
61710;BME280;73500;51.494;5.386;2024-03-23T05:47:09;100901.59;;;17.95;43.55
61710;BME280;73500;51.494;5.386;2024-03-23T05:49:34;100915.84;;;18.04;43.34
61710;BME280;73500;51.494;5.386;2024-03-23T05:51:59;100920.25;;;18.04;43.32
61710;BME280;73500;51.494;5.386;2024-03-23T05:54:27;100896.56;;;17.92;43.00
61710;BME280;73500;51.494;5.386;2024-03-23T05:56:54;100908.19;;;18.01;43.15
61710;BME280;73500;51.494;5.386;2024-03-23T05:59:20;100888.75;;;17.91;43.11
61710;BME280;73500;51.494;5.386;2024-03-23T06:01:46;100885.19;;;17.92;43.17
61710;BME280;73500;51.494;5.386;2024-03-23T06:04:12;100899.56;;;17.99;43.35
61710;BME280;73500;51.494;5.386;2024-03-23T06:06:38;100900.75;;;17.95;43.36
61710;BME280;73500;51.494;5.386;2024-03-23T06:09:03;100894.16;;;17.89;43.68
61710;BME280;73500;51.494;5.386;2024-03-23T06:11:28;100893.22;;;17.90;43.93
61710;BME280;73500;51.494;5.386;2024-03-23T06:13:54;100908.53;;;17.97;43.97
61710;BME280;73500;51.494;5.386;2024-03-23T06:16:20;100912.34;;;18.04;44.32
61710;BME280;73500;51.494;5.386;2024-03-23T06:18:49;100921.59;;;17.98;44.14
61710;BME280;73500;51.494;5.386;2024-03-23T06:21:14;100914.78;;;17.95;44.33
61710;BME280;73500;51.494;5.386;2024-03-23T06:23:40;100907.72;;;17.96;44.60
61710;BME280;73500;51.494;5.386;2024-03-23T06:26:06;100929.38;;;18.11;44.37
61710;BME280;73500;51.494;5.386;2024-03-23T06:28:31;100907.47;;;17.99;44.52
61710;BME280;73500;51.494;5.386;2024-03-23T06:30:56;100906.25;;;18.03;44.66
61710;BME280;73500;51.494;5.386;2024-03-23T06:33:22;100932.34;;;18.18;44.52
61710;BME280;73500;51.494;5.386;2024-03-23T06:35:53;100930.56;;;18.18;44.93
61710;BME280;73500;51.494;5.386;2024-03-23T06:38:18;100940.75;;;18.23;44.90
61710;BME280;73500;51.494;5.386;2024-03-23T06:40:44;100941.59;;;18.23;44.86
61710;BME280;73500;51.494;5.386;2024-03-23T06:43:13;100933.81;;;18.22;44.53
61710;BME280;73500;51.494;5.386;2024-03-23T06:45:39;100940.38;;;18.27;44.43
61710;BME280;73500;51.494;5.386;2024-03-23T06:48:04;100920.84;;;18.19;44.74
61710;BME280;73500;51.494;5.386;2024-03-23T06:50:33;100934.16;;;18.28;44.74
61710;BME280;73500;51.494;5.386;2024-03-23T06:52:58;100930.56;;;18.29;44.82
61710;BME280;73500;51.494;5.386;2024-03-23T06:55:23;100929.56;;;18.30;45.04
61710;BME280;73500;51.494;5.386;2024-03-23T06:57:50;100942.16;;;18.38;44.48
61710;BME280;73500;51.494;5.386;2024-03-23T07:00:15;100932.56;;;18.26;44.71
61710;BME280;73500;51.494;5.386;2024-03-23T07:02:41;100940.00;;;18.32;44.70
61710;BME280;73500;51.494;5.386;2024-03-23T07:05:06;100924.53;;;18.27;44.55
61710;BME280;73500;51.494;5.386;2024-03-23T07:07:32;100943.72;;;18.41;44.45
61710;BME280;73500;51.494;5.386;2024-03-23T07:09:57;100949.00;;;18.41;44.66
61710;BME280;73500;51.494;5.386;2024-03-23T07:12:23;100951.63;;;18.41;44.37
61710;BME280;73500;51.494;5.386;2024-03-23T07:14:48;100954.97;;;18.43;44.64
61710;BME280;73500;51.494;5.386;2024-03-23T07:17:13;100946.47;;;18.39;44.55
61710;BME280;73500;51.494;5.386;2024-03-23T07:19:39;100927.78;;;18.31;44.44
61710;BME280;73500;51.494;5.386;2024-03-23T07:22:04;100936.88;;;18.38;44.42
61710;BME280;73500;51.494;5.386;2024-03-23T07:24:29;100944.41;;;18.43;44.60
61710;BME280;73500;51.494;5.386;2024-03-23T07:26:55;100947.88;;;18.43;44.26
61710;BME280;73500;51.494;5.386;2024-03-23T07:29:23;100934.59;;;18.34;44.37
61710;BME280;73500;51.494;5.386;2024-03-23T07:31:48;100940.22;;;18.40;44.61
61710;BME280;73500;51.494;5.386;2024-03-23T07:34:13;100953.03;;;18.45;44.59
61710;BME280;73500;51.494;5.386;2024-03-23T07:36:40;100957.63;;;18.43;44.31
61710;BME280;73500;51.494;5.386;2024-03-23T07:39:05;100949.81;;;18.41;43.82
61710;BME280;73500;51.494;5.386;2024-03-23T07:41:30;100936.16;;;18.36;44.12
61710;BME280;73500;51.494;5.386;2024-03-23T07:43:56;100933.41;;;18.38;43.81
61710;BME280;73500;51.494;5.386;2024-03-23T07:46:21;100938.91;;;18.46;44.08
61710;BME280;73500;51.494;5.386;2024-03-23T07:48:47;100922.13;;;18.36;43.89
61710;BME280;73500;51.494;5.386;2024-03-23T07:51:21;100938.66;;;18.49;44.34
61710;BME280;73500;51.494;5.386;2024-03-23T07:53:46;100928.13;;;18.38;44.29
61710;BME280;73500;51.494;5.386;2024-03-23T07:56:13;100940.47;;;18.48;44.64
61710;BME280;73500;51.494;5.386;2024-03-23T07:58:40;100941.16;;;18.51;44.45
61710;BME280;73500;51.494;5.386;2024-03-23T08:01:11;100927.88;;;18.41;44.97
61710;BME280;73500;51.494;5.386;2024-03-23T08:03:39;100928.72;;;18.41;44.86
61710;BME280;73500;51.494;5.386;2024-03-23T08:06:18;100928.47;;;18.44;45.09
61710;BME280;73500;51.494;5.386;2024-03-23T08:08:52;100932.78;;;18.45;44.77
61710;BME280;73500;51.494;5.386;2024-03-23T08:11:25;100933.50;;;18.47;44.62
61710;BME280;73500;51.494;5.386;2024-03-23T08:13:50;100924.38;;;18.40;44.87
61710;BME280;73500;51.494;5.386;2024-03-23T08:16:16;100932.41;;;18.50;44.86
61710;BME280;73500;51.494;5.386;2024-03-23T08:18:41;100934.19;;;18.49;44.76
61710;BME280;73500;51.494;5.386;2024-03-23T08:21:07;100941.88;;;18.53;45.03
61710;BME280;73500;51.494;5.386;2024-03-23T08:23:34;100941.16;;;18.51;44.76
61710;BME280;73500;51.494;5.386;2024-03-23T08:26:02;100923.53;;;18.51;45.21
61710;BME280;73500;51.494;5.386;2024-03-23T08:28:28;100918.75;;;18.45;44.94
61710;BME280;73500;51.494;5.386;2024-03-23T08:30:54;100932.25;;;18.52;45.17
61710;BME280;73500;51.494;5.386;2024-03-23T08:33:20;100920.19;;;18.49;45.12
61710;BME280;73500;51.494;5.386;2024-03-23T08:35:56;100923.66;;;18.49;45.06
61710;BME280;73500;51.494;5.386;2024-03-23T08:38:25;100917.34;;;18.41;44.96
61710;BME280;73500;51.494;5.386;2024-03-23T08:41:04;100915.63;;;18.40;44.90
61710;BME280;73500;51.494;5.386;2024-03-23T08:43:31;100931.44;;;18.51;44.87
61710;BME280;73500;51.494;5.386;2024-03-23T08:46:13;100917.22;;;18.42;44.88
61710;BME280;73500;51.494;5.386;2024-03-23T08:48:40;100933.13;;;18.52;44.92
61710;BME280;73500;51.494;5.386;2024-03-23T08:51:09;100933.94;;;18.53;44.95
61710;BME280;73500;51.494;5.386;2024-03-23T08:53:35;100944.06;;;18.47;44.90
61710;BME280;73500;51.494;5.386;2024-03-23T08:56:01;100936.38;;;18.44;44.78
61710;BME280;73500;51.494;5.386;2024-03-23T08:58:28;100946.00;;;18.45;44.97
61710;BME280;73500;51.494;5.386;2024-03-23T09:00:55;100962.31;;;18.39;45.01
61710;BME280;73500;51.494;5.386;2024-03-23T09:03:22;100986.28;;;18.47;44.83
61710;BME280;73500;51.494;5.386;2024-03-23T09:05:47;100984.47;;;18.48;44.30
61710;BME280;73500;51.494;5.386;2024-03-23T09:08:13;100974.88;;;18.36;44.78
61710;BME280;73500;51.494;5.386;2024-03-23T09:10:38;100952.72;;;18.38;44.56
61710;BME280;73500;51.494;5.386;2024-03-23T09:13:04;100951.63;;;18.41;44.56
61710;BME280;73500;51.494;5.386;2024-03-23T09:15:29;100925.88;;;18.33;44.44
61710;BME280;73500;51.494;5.386;2024-03-23T09:17:56;100931.72;;;18.37;44.42
61710;BME280;73500;51.494;5.386;2024-03-23T09:20:21;100919.75;;;18.33;44.43
61710;BME280;73500;51.494;5.386;2024-03-23T09:22:48;100944.06;;;18.47;44.48
61710;BME280;73500;51.494;5.386;2024-03-23T09:25:13;100928.00;;;18.39;44.55
61710;BME280;73500;51.494;5.386;2024-03-23T09:27:38;100931.94;;;18.45;44.76
61710;BME280;73500;51.494;5.386;2024-03-23T09:30:04;100929.41;;;18.43;44.72
61710;BME280;73500;51.494;5.386;2024-03-23T09:32:30;100921.63;;;18.42;44.99
61710;BME280;73500;51.494;5.386;2024-03-23T09:34:55;100942.13;;;18.49;45.18
61710;BME280;73500;51.494;5.386;2024-03-23T09:37:20;100922.59;;;18.41;45.08
61710;BME280;73500;51.494;5.386;2024-03-23T09:39:46;100932.41;;;18.50;44.98
61710;BME280;73500;51.494;5.386;2024-03-23T09:42:11;100918.88;;;18.43;45.36
61710;BME280;73500;51.494;5.386;2024-03-23T09:44:36;100916.34;;;18.42;45.15
61710;BME280;73500;51.494;5.386;2024-03-23T09:47:02;100900.88;;;18.37;45.22
61710;BME280;73500;51.494;5.386;2024-03-23T09:49:28;100912.25;;;18.49;44.99
61710;BME280;73500;51.494;5.386;2024-03-23T09:51:53;100896.34;;;18.39;45.26
61710;BME280;73500;51.494;5.386;2024-03-23T09:54:20;100904.00;;;18.42;45.13
61710;BME280;73500;51.494;5.386;2024-03-23T09:56:47;100910.44;;;18.49;45.21
61710;BME280;73500;51.494;5.386;2024-03-23T09:59:12;100914.78;;;18.51;45.25
61710;BME280;73500;51.494;5.386;2024-03-23T10:01:37;100928.69;;;18.53;45.41
61710;BME280;73500;51.494;5.386;2024-03-23T10:04:03;100925.59;;;18.47;45.21
61710;BME280;73500;51.494;5.386;2024-03-23T10:06:28;100917.22;;;18.42;45.28
61710;BME280;73500;51.494;5.386;2024-03-23T10:08:54;100926.75;;;18.55;45.07
61710;BME280;73500;51.494;5.386;2024-03-23T10:11:20;100906.66;;;18.42;44.86
61710;BME280;73500;51.494;5.386;2024-03-23T10:13:46;100917.41;;;18.51;45.05
61710;BME280;73500;51.494;5.386;2024-03-23T10:16:12;100921.59;;;18.53;45.20
61710;BME280;73500;51.494;5.386;2024-03-23T10:18:45;100920.50;;;18.56;44.95
61710;BME280;73500;51.494;5.386;2024-03-23T10:21:11;100922.19;;;18.57;44.80
61710;BME280;73500;51.494;5.386;2024-03-23T10:23:40;100902.06;;;18.44;45.01
61710;BME280;73500;51.494;5.386;2024-03-23T10:26:17;100912.97;;;18.51;44.89
61710;BME280;73500;51.494;5.386;2024-03-23T10:31:16;100902.66;;;18.48;44.89
61710;BME280;73500;51.494;5.386;2024-03-23T10:33:48;100893.91;;;18.47;45.09
61710;BME280;73500;51.494;5.386;2024-03-23T10:36:14;100906.03;;;18.50;45.00
61710;BME280;73500;51.494;5.386;2024-03-23T10:38:43;100898.31;;;18.58;44.82
61710;BME280;73500;51.494;5.386;2024-03-23T10:41:10;100886.00;;;18.47;45.06
61710;BME280;73500;51.494;5.386;2024-03-23T10:43:36;100875.56;;;18.46;45.13
61710;BME280;73500;51.494;5.386;2024-03-23T10:46:02;100888.13;;;18.54;44.91
61710;BME280;73500;51.494;5.386;2024-03-23T10:48:28;100890.28;;;18.60;45.03
61710;BME280;73500;51.494;5.386;2024-03-23T10:50:53;100879.63;;;18.50;45.02
61710;BME280;73500;51.494;5.386;2024-03-23T10:53:21;100882.28;;;18.50;44.87
61710;BME280;73500;51.494;5.386;2024-03-23T10:55:48;100888.47;;;18.60;44.85
61710;BME280;73500;51.494;5.386;2024-03-23T10:58:14;100897.81;;;18.64;44.78
61710;BME280;73500;51.494;5.386;2024-03-23T11:00:40;100885.94;;;18.59;44.83
61710;BME280;73500;51.494;5.386;2024-03-23T11:03:31;100898.63;;;18.65;44.80
61710;BME280;73500;51.494;5.386;2024-03-23T11:05:58;100884.63;;;18.53;44.86
61710;BME280;73500;51.494;5.386;2024-03-23T11:08:34;100873.94;;;18.55;45.08
61710;BME280;73500;51.494;5.386;2024-03-23T11:11:18;100893.34;;;18.65;44.82
61710;BME280;73500;51.494;5.386;2024-03-23T11:13:47;100858.53;;;18.50;44.69
61710;BME280;73500;51.494;5.386;2024-03-23T11:18:39;100864.63;;;18.51;44.67
61710;BME280;73500;51.494;5.386;2024-03-23T11:21:06;100879.91;;;18.68;44.57
61710;BME280;73500;51.494;5.386;2024-03-23T11:23:32;100890.03;;;18.63;44.20
61710;BME280;73500;51.494;5.386;2024-03-23T11:25:57;100904.75;;;18.65;44.37
61710;BME280;73500;51.494;5.386;2024-03-23T11:28:22;100894.19;;;18.65;44.61
61710;BME280;73500;51.494;5.386;2024-03-23T11:30:48;100897.81;;;18.64;44.89
61710;BME280;73500;51.494;5.386;2024-03-23T11:33:13;100899.00;;;18.60;44.47
61710;BME280;73500;51.494;5.386;2024-03-23T11:35:39;100924.09;;;18.66;44.04
61710;BME280;73500;51.494;5.386;2024-03-23T11:38:10;100880.22;;;18.54;44.10
61710;BME280;73500;51.494;5.386;2024-03-23T11:40:38;100903.22;;;18.63;44.06
61710;BME280;73500;51.494;5.386;2024-03-23T11:43:05;100889.53;;;18.58;44.16
61710;BME280;73500;51.494;5.386;2024-03-23T11:45:50;100899.59;;;18.64;43.93
61710;BME280;73500;51.494;5.386;2024-03-23T11:48:21;100904.88;;;18.64;43.77
61710;BME280;73500;51.494;5.386;2024-03-23T11:50:50;100908.38;;;18.64;43.67
61710;BME280;73500;51.494;5.386;2024-03-23T11:56:02;100911.25;;;18.61;43.40
61710;BME280;73500;51.494;5.386;2024-03-23T11:58:27;100907.19;;;18.57;43.55
61710;BME280;73500;51.494;5.386;2024-03-23T12:03:23;100906.59;;;18.54;43.32
61710;BME280;73500;51.494;5.386;2024-03-23T12:05:53;100907.44;;;18.54;43.47
61710;BME280;73500;51.494;5.386;2024-03-23T12:08:20;100906.03;;;18.50;43.32
61710;BME280;73500;51.494;5.386;2024-03-23T12:10:54;100923.59;;;18.61;43.26
61710;BME280;73500;51.494;5.386;2024-03-23T12:13:29;100899.78;;;18.51;43.14
61710;BME280;73500;51.494;5.386;2024-03-23T12:15:54;100900.09;;;18.58;43.41
61710;BME280;73500;51.494;5.386;2024-03-23T12:18:23;100909.44;;;18.62;43.31
61710;BME280;73500;51.494;5.386;2024-03-23T12:20:49;100867.97;;;18.53;43.49
61710;BME280;73500;51.494;5.386;2024-03-23T12:23:14;100891.81;;;18.62;43.23
61710;BME280;73500;51.494;5.386;2024-03-23T12:25:40;100900.03;;;18.69;43.49
61710;BME280;73500;51.494;5.386;2024-03-23T12:28:06;100893.16;;;18.57;43.53
61710;BME280;73500;51.494;5.386;2024-03-23T12:30:35;100876.34;;;18.58;43.24
61710;BME280;73500;51.494;5.386;2024-03-23T12:33:03;100896.00;;;18.65;42.90
61710;BME280;73500;51.494;5.386;2024-03-23T12:35:29;100887.25;;;18.64;43.58
61710;BME280;73500;51.494;5.386;2024-03-23T12:37:54;100898.13;;;18.71;44.83
61710;BME280;73500;51.494;5.386;2024-03-23T12:40:19;100869.47;;;18.66;45.32
61710;BME280;73500;51.494;5.386;2024-03-23T12:42:45;100884.94;;;18.71;45.39
61710;BME280;73500;51.494;5.386;2024-03-23T12:45:10;100871.28;;;18.66;45.13
61710;BME280;73500;51.494;5.386;2024-03-23T12:47:36;100861.56;;;18.66;45.29
61710;BME280;73500;51.494;5.386;2024-03-23T12:50:01;100852.47;;;18.59;44.93
61710;BME280;73500;51.494;5.386;2024-03-23T12:52:26;100871.28;;;18.66;44.22
61710;BME280;73500;51.494;5.386;2024-03-23T12:54:56;100851.88;;;18.56;44.54
61710;BME280;73500;51.494;5.386;2024-03-23T12:57:23;100874.06;;;18.64;44.40
61710;BME280;73500;51.494;5.386;2024-03-23T12:59:49;100861.69;;;18.65;44.50
61710;BME280;73500;51.494;5.386;2024-03-23T13:02:17;100844.66;;;18.58;44.24
61710;BME280;73500;51.494;5.386;2024-03-23T13:04:42;100849.69;;;18.61;44.68
61710;BME280;73500;51.494;5.386;2024-03-23T13:07:08;100865.47;;;18.72;44.43
61710;BME280;73500;51.494;5.386;2024-03-23T13:09:33;100843.22;;;18.65;44.46
61710;BME280;73500;51.494;5.386;2024-03-23T13:11:59;100851.13;;;18.65;44.46
61710;BME280;73500;51.494;5.386;2024-03-23T13:14:24;100867.97;;;18.74;44.25
61710;BME280;73500;51.494;5.386;2024-03-23T13:16:49;100869.53;;;18.76;44.19
61710;BME280;73500;51.494;5.386;2024-03-23T13:19:14;100864.38;;;18.75;44.08
61710;BME280;73500;51.494;5.386;2024-03-23T13:21:40;100881.19;;;18.74;44.38
61710;BME280;73500;51.494;5.386;2024-03-23T13:24:05;100861.94;;;18.62;44.19
61710;BME280;73500;51.494;5.386;2024-03-23T13:26:31;100862.06;;;18.60;43.36
61710;BME280;73500;51.494;5.386;2024-03-23T13:28:56;100853.31;;;18.60;43.73
61710;BME280;73500;51.494;5.386;2024-03-23T13:31:21;100862.50;;;18.65;43.17
61710;BME280;73500;51.494;5.386;2024-03-23T13:33:47;100864.19;;;18.66;43.32
61710;BME280;73500;51.494;5.386;2024-03-23T13:36:13;100858.09;;;18.66;43.05
61710;BME280;73500;51.494;5.386;2024-03-23T13:38:38;100870.19;;;18.68;43.25
61710;BME280;73500;51.494;5.386;2024-03-23T13:41:03;100864.06;;;18.68;43.22
61710;BME280;73500;51.494;5.386;2024-03-23T13:43:30;100857.81;;;18.69;43.08
61710;BME280;73500;51.494;5.386;2024-03-23T13:45:57;100855.31;;;18.67;43.01
61710;BME280;73500;51.494;5.386;2024-03-23T13:48:24;100815.44;;;18.49;42.92